sensor_id;sensor_type;location;lat;lon;timestamp;pressure;altitude;pressure_sealevel;temperature;humidity
19624;BME280;9959;49.798;9.928;2023-05-03T00:00:17;100613.66;;;6.80;94.95
19624;BME280;9959;49.798;9.928;2023-05-03T00:02:44;100618.66;;;6.75;95.71
19624;BME280;9959;49.798;9.928;2023-05-03T00:05:11;100616.13;;;6.73;95.37
19624;BME280;9959;49.798;9.928;2023-05-03T00:07:41;100619.63;;;6.66;96.04
19624;BME280;9959;49.798;9.928;2023-05-03T00:10:09;100627.72;;;6.90;95.09
19624;BME280;9959;49.798;9.928;2023-05-03T00:12:38;100620.66;;;6.73;95.15
19624;BME280;9959;49.798;9.928;2023-05-03T00:15:06;100622.00;;;6.77;95.32
19624;BME280;9959;49.798;9.928;2023-05-03T00:17:33;100620.00;;;6.79;95.13
19624;BME280;9959;49.798;9.928;2023-05-03T00:20:01;100622.34;;;6.74;95.34
19624;BME280;9959;49.798;9.928;2023-05-03T00:22:30;100621.81;;;6.70;95.71
19624;BME280;9959;49.798;9.928;2023-05-03T00:24:58;100624.97;;;6.66;95.28
19624;BME280;9959;49.798;9.928;2023-05-03T00:27:26;100623.91;;;6.42;96.41
19624;BME280;9959;49.798;9.928;2023-05-03T00:29:52;100616.66;;;6.77;95.32
19624;BME280;9959;49.798;9.928;2023-05-03T00:32:20;100619.66;;;6.74;94.54
19624;BME280;9959;49.798;9.928;2023-05-03T00:34:55;100624.66;;;6.69;94.74
19624;BME280;9959;49.798;9.928;2023-05-03T00:37:23;100615.94;;;6.67;94.84
19624;BME280;9959;49.798;9.928;2023-05-03T00:39:51;100620.00;;;6.79;93.78
19624;BME280;9959;49.798;9.928;2023-05-03T00:42:18;100602.59;;;6.75;92.94
19624;BME280;9959;49.798;9.928;2023-05-03T00:44:45;100604.91;;;6.70;93.80
19624;BME280;9959;49.798;9.928;2023-05-03T00:47:12;100602.41;;;6.68;93.93
19624;BME280;9959;49.798;9.928;2023-05-03T00:49:39;100607.75;;;6.68;92.98
19624;BME280;9959;49.798;9.928;2023-05-03T00:52:07;100607.59;;;6.70;92.45
19624;BME280;9959;49.798;9.928;2023-05-03T00:54:35;100603.22;;;6.69;92.31
19624;BME280;9959;49.798;9.928;2023-05-03T00:57:03;100602.06;;;6.71;92.51
19624;BME280;9959;49.798;9.928;2023-05-03T00:59:31;100596.84;;;6.54;93.07
19624;BME280;9959;49.798;9.928;2023-05-03T01:01:58;100591.47;;;6.45;93.39
19624;BME280;9959;49.798;9.928;2023-05-03T01:04:25;100605.00;;;6.44;93.68
19624;BME280;9959;49.798;9.928;2023-05-03T01:10:06;100599.69;;;6.60;93.08
19624;BME280;9959;49.798;9.928;2023-05-03T01:15:58;100595.88;;;6.71;92.19
19624;BME280;9959;49.798;9.928;2023-05-03T01:18:30;100597.22;;;6.75;91.65
19624;BME280;9959;49.798;9.928;2023-05-03T01:21:01;100598.06;;;6.75;91.18
19624;BME280;9959;49.798;9.928;2023-05-03T01:23:42;100601.09;;;6.81;91.40
19624;BME280;9959;49.798;9.928;2023-05-03T01:26:24;100602.25;;;6.78;90.83
19624;BME280;9959;49.798;9.928;2023-05-03T01:28:51;100599.75;;;6.85;90.37
19624;BME280;9959;49.798;9.928;2023-05-03T01:31:27;100598.09;;;6.92;90.94
19624;BME280;9959;49.798;9.928;2023-05-03T01:34:04;100595.25;;;6.93;90.22
19624;BME280;9959;49.798;9.928;2023-05-03T01:36:37;100592.22;;;6.88;92.76
19624;BME280;9959;49.798;9.928;2023-05-03T01:39:11;100598.94;;;6.92;92.33
19624;BME280;9959;49.798;9.928;2023-05-03T01:41:39;100603.31;;;7.01;92.73
19624;BME280;9959;49.798;9.928;2023-05-03T01:44:08;100607.34;;;7.05;93.02
19624;BME280;9959;49.798;9.928;2023-05-03T01:46:45;100608.00;;;6.99;92.72
19624;BME280;9959;49.798;9.928;2023-05-03T01:49:12;100600.28;;;7.12;91.08
19624;BME280;9959;49.798;9.928;2023-05-03T01:51:38;100585.56;;;7.17;90.31
19624;BME280;9959;49.798;9.928;2023-05-03T01:54:05;100582.22;;;7.31;89.08
19624;BME280;9959;49.798;9.928;2023-05-03T01:56:34;100587.59;;;7.31;88.87
19624;BME280;9959;49.798;9.928;2023-05-03T01:59:02;100579.53;;;7.39;87.82
19624;BME280;9959;49.798;9.928;2023-05-03T02:01:29;100583.72;;;7.25;86.48
19624;BME280;9959;49.798;9.928;2023-05-03T02:03:56;100596.13;;;7.18;86.46
19624;BME280;9959;49.798;9.928;2023-05-03T02:06:26;100590.25;;;7.23;86.45
19624;BME280;9959;49.798;9.928;2023-05-03T02:08:53;100595.81;;;7.37;85.94
19624;BME280;9959;49.798;9.928;2023-05-03T02:11:20;100587.25;;;7.26;86.30
19624;BME280;9959;49.798;9.928;2023-05-03T02:13:48;100586.56;;;7.24;86.32
19624;BME280;9959;49.798;9.928;2023-05-03T02:16:19;100591.59;;;7.27;86.97
19624;BME280;9959;49.798;9.928;2023-05-03T02:18:46;100588.91;;;7.27;84.92
19624;BME280;9959;49.798;9.928;2023-05-03T02:21:13;100586.91;;;7.37;85.00
19624;BME280;9959;49.798;9.928;2023-05-03T02:23:40;100581.53;;;7.53;84.97
19624;BME280;9959;49.798;9.928;2023-05-03T02:26:07;100589.91;;;7.50;81.12
19624;BME280;9959;49.798;9.928;2023-05-03T02:28:34;100588.91;;;7.51;79.86
19624;BME280;9959;49.798;9.928;2023-05-03T02:31:01;100595.44;;;7.57;78.39
19624;BME280;9959;49.798;9.928;2023-05-03T02:33:28;100592.56;;;7.66;79.97
19624;BME280;9959;49.798;9.928;2023-05-03T02:35:57;100603.00;;;7.53;79.28
19624;BME280;9959;49.798;9.928;2023-05-03T02:38:24;100602.16;;;7.53;78.84
19624;BME280;9959;49.798;9.928;2023-05-03T02:40:51;100600.13;;;7.55;78.74
19624;BME280;9959;49.798;9.928;2023-05-03T02:43:17;100604.34;;;7.57;77.76
19624;BME280;9959;49.798;9.928;2023-05-03T02:45:44;100601.66;;;7.57;78.19
19624;BME280;9959;49.798;9.928;2023-05-03T02:48:11;100599.97;;;7.48;77.80
19624;BME280;9959;49.798;9.928;2023-05-03T02:50:38;100595.28;;;7.58;77.65
19624;BME280;9959;49.798;9.928;2023-05-03T02:53:05;100597.28;;;7.56;76.96
19624;BME280;9959;49.798;9.928;2023-05-03T02:55:32;100599.97;;;7.48;76.28
19624;BME280;9959;49.798;9.928;2023-05-03T02:57:59;100602.47;;;7.58;76.05
19624;BME280;9959;49.798;9.928;2023-05-03T03:00:26;100598.63;;;7.52;75.71
19624;BME280;9959;49.798;9.928;2023-05-03T03:02:53;100595.94;;;7.52;75.79
19624;BME280;9959;49.798;9.928;2023-05-03T03:05:20;100595.91;;;7.68;75.76
19624;BME280;9959;49.798;9.928;2023-05-03T03:07:47;100594.94;;;7.61;76.89
19624;BME280;9959;49.798;9.928;2023-05-03T03:10:14;100599.13;;;7.64;76.74
19624;BME280;9959;49.798;9.928;2023-05-03T03:12:40;100592.25;;;7.45;77.66
19624;BME280;9959;49.798;9.928;2023-05-03T03:15:08;100591.59;;;7.59;77.36
19624;BME280;9959;49.798;9.928;2023-05-03T03:17:34;100588.56;;;7.54;77.38
19624;BME280;9959;49.798;9.928;2023-05-03T03:20:06;100594.94;;;7.45;77.16
19624;BME280;9959;49.798;9.928;2023-05-03T03:22:33;100598.63;;;7.44;77.32
19624;BME280;9959;49.798;9.928;2023-05-03T03:25:00;100598.28;;;7.47;77.20
19624;BME280;9959;49.798;9.928;2023-05-03T03:27:26;100605.16;;;7.41;76.05
19624;BME280;9959;49.798;9.928;2023-05-03T03:29:53;100597.97;;;7.50;75.43
19624;BME280;9959;49.798;9.928;2023-05-03T03:32:20;100596.28;;;7.49;75.00
19624;BME280;9959;49.798;9.928;2023-05-03T03:34:47;100592.94;;;7.47;74.55
19624;BME280;9959;49.798;9.928;2023-05-03T03:37:14;100593.97;;;7.38;74.53
19624;BME280;9959;49.798;9.928;2023-05-03T03:39:41;100592.09;;;7.46;74.71
19624;BME280;9959;49.798;9.928;2023-05-03T03:42:10;100595.97;;;7.28;74.91
19624;BME280;9959;49.798;9.928;2023-05-03T03:44:37;100598.66;;;7.36;74.92
19624;BME280;9959;49.798;9.928;2023-05-03T03:47:05;100597.28;;;7.24;75.65
19624;BME280;9959;49.798;9.928;2023-05-03T03:49:31;100606.34;;;7.06;75.90
19624;BME280;9959;49.798;9.928;2023-05-03T03:51:58;100607.19;;;7.07;76.21
19624;BME280;9959;49.798;9.928;2023-05-03T03:54:25;100609.34;;;7.11;75.94
19624;BME280;9959;49.798;9.928;2023-05-03T03:56:52;100612.28;;;6.84;76.49
19624;BME280;9959;49.798;9.928;2023-05-03T03:59:19;100616.13;;;6.73;76.92
19624;BME280;9959;49.798;9.928;2023-05-03T04:01:45;100622.13;;;6.67;77.08
19624;BME280;9959;49.798;9.928;2023-05-03T04:04:12;100615.31;;;6.73;77.10
19624;BME280;9959;49.798;9.928;2023-05-03T04:06:39;100617.44;;;6.53;77.46
19624;BME280;9959;49.798;9.928;2023-05-03T04:09:06;100615.91;;;6.59;77.45
19624;BME280;9959;49.798;9.928;2023-05-03T04:11:33;100620.44;;;6.58;77.26
19624;BME280;9959;49.798;9.928;2023-05-03T04:14:00;100619.94;;;6.55;78.57
19624;BME280;9959;49.798;9.928;2023-05-03T04:16:27;100624.56;;;6.44;78.70
19624;BME280;9959;49.798;9.928;2023-05-03T04:18:54;100628.94;;;6.45;79.05
19624;BME280;9959;49.798;9.928;2023-05-03T04:21:21;100630.56;;;6.38;78.98
19624;BME280;9959;49.798;9.928;2023-05-03T04:23:48;100637.63;;;6.48;77.83
19624;BME280;9959;49.798;9.928;2023-05-03T04:26:15;100629.41;;;6.41;78.43
19624;BME280;9959;49.798;9.928;2023-05-03T04:28:57;100632.88;;;6.25;78.71
19624;BME280;9959;49.798;9.928;2023-05-03T04:31:24;100639.16;;;6.16;78.33
19624;BME280;9959;49.798;9.928;2023-05-03T04:33:51;100646.81;;;6.11;78.96
19624;BME280;9959;49.798;9.928;2023-05-03T04:36:17;100638.16;;;6.17;78.56
19624;BME280;9959;49.798;9.928;2023-05-03T04:38:44;100648.91;;;6.25;78.33
19624;BME280;9959;49.798;9.928;2023-05-03T04:41:12;100652.91;;;6.21;78.51
19624;BME280;9959;49.798;9.928;2023-05-03T04:43:41;100651.78;;;6.06;78.96
19624;BME280;9959;49.798;9.928;2023-05-03T04:46:09;100652.09;;;6.03;79.40
19624;BME280;9959;49.798;9.928;2023-05-03T04:48:35;100650.72;;;5.91;79.61
19624;BME280;9959;49.798;9.928;2023-05-03T04:51:03;100649.81;;;6.08;79.45
19624;BME280;9959;49.798;9.928;2023-05-03T04:53:30;100652.47;;;6.08;79.44
19624;BME280;9959;49.798;9.928;2023-05-03T04:55:57;100645.13;;;6.10;79.27
19624;BME280;9959;49.798;9.928;2023-05-03T04:58:23;100660.88;;;6.13;79.08
19624;BME280;9959;49.798;9.928;2023-05-03T05:00:50;100660.50;;;6.08;78.51
19624;BME280;9959;49.798;9.928;2023-05-03T05:03:17;100658.34;;;6.11;78.65
19624;BME280;9959;49.798;9.928;2023-05-03T05:05:44;100655.53;;;6.13;78.72
19624;BME280;9959;49.798;9.928;2023-05-03T05:08:11;100662.25;;;6.17;78.40
19624;BME280;9959;49.798;9.928;2023-05-03T05:10:41;100656.25;;;6.23;78.21
19624;BME280;9959;49.798;9.928;2023-05-03T05:13:09;100659.13;;;6.30;77.63
19624;BME280;9959;49.798;9.928;2023-05-03T05:15:35;100673.53;;;6.37;77.54
19624;BME280;9959;49.798;9.928;2023-05-03T05:18:02;100673.22;;;6.40;77.09
19624;BME280;9959;49.798;9.928;2023-05-03T05:20:29;100674.81;;;6.51;76.77
19624;BME280;9959;49.798;9.928;2023-05-03T05:22:56;100671.66;;;6.63;76.12
19624;BME280;9959;49.798;9.928;2023-05-03T05:25:23;100677.50;;;6.59;75.56
19624;BME280;9959;49.798;9.928;2023-05-03T05:27:50;100682.59;;;6.78;74.97
19624;BME280;9959;49.798;9.928;2023-05-03T05:30:17;100676.66;;;7.00;73.89
19624;BME280;9959;49.798;9.928;2023-05-03T05:32:45;100681.00;;;7.01;73.78
19624;BME280;9959;49.798;9.928;2023-05-03T05:35:11;100680.97;;;6.93;73.33
19624;BME280;9959;49.798;9.928;2023-05-03T05:37:38;100677.34;;;7.19;72.28
19624;BME280;9959;49.798;9.928;2023-05-03T05:40:06;100682.06;;;7.41;71.35
19624;BME280;9959;49.798;9.928;2023-05-03T05:42:33;100683.44;;;7.53;71.47
19624;BME280;9959;49.798;9.928;2023-05-03T05:45:00;100684.13;;;7.63;70.16
19624;BME280;9959;49.798;9.928;2023-05-03T05:47:27;100682.75;;;7.35;71.06
19624;BME280;9959;49.798;9.928;2023-05-03T05:49:54;100679.72;;;7.70;70.11
19624;BME280;9959;49.798;9.928;2023-05-03T05:52:20;100687.59;;;7.47;70.57
19624;BME280;9959;49.798;9.928;2023-05-03T05:54:47;100685.78;;;7.64;70.02
19624;BME280;9959;49.798;9.928;2023-05-03T05:57:14;100689.97;;;7.75;69.51
19624;BME280;9959;49.798;9.928;2023-05-03T05:59:41;100689.47;;;7.79;69.24
19624;BME280;9959;49.798;9.928;2023-05-03T06:02:13;100684.56;;;7.99;69.02
19624;BME280;9959;49.798;9.928;2023-05-03T06:04:43;100679.19;;;8.15;68.30
19624;BME280;9959;49.798;9.928;2023-05-03T06:07:10;100685.38;;;8.24;67.77
19624;BME280;9959;49.798;9.928;2023-05-03T06:09:37;100678.31;;;8.23;67.95
19624;BME280;9959;49.798;9.928;2023-05-03T06:12:04;100680.16;;;8.31;67.85
19624;BME280;9959;49.798;9.928;2023-05-03T06:14:32;100683.69;;;8.31;68.04
19624;BME280;9959;49.798;9.928;2023-05-03T06:16:58;100681.19;;;8.22;67.79
19624;BME280;9959;49.798;9.928;2023-05-03T06:19:26;100682.69;;;8.40;67.95
19624;BME280;9959;49.798;9.928;2023-05-03T06:21:53;100688.56;;;8.44;68.21
19624;BME280;9959;49.798;9.928;2023-05-03T06:24:19;100690.66;;;8.65;67.25
19624;BME280;9959;49.798;9.928;2023-05-03T06:26:47;100680.25;;;8.62;67.57
19624;BME280;9959;49.798;9.928;2023-05-03T06:29:14;100686.97;;;8.66;66.95
19624;BME280;9959;49.798;9.928;2023-05-03T06:31:41;100688.56;;;8.83;66.22
19624;BME280;9959;49.798;9.928;2023-05-03T06:34:08;100681.25;;;8.69;66.66
19624;BME280;9959;49.798;9.928;2023-05-03T06:36:35;100688.63;;;8.67;67.30
19624;BME280;9959;49.798;9.928;2023-05-03T06:39:03;100685.28;;;8.65;67.52
19624;BME280;9959;49.798;9.928;2023-05-03T06:41:30;100681.22;;;9.08;66.18
19624;BME280;9959;49.798;9.928;2023-05-03T06:44:00;100689.50;;;8.98;66.79
19624;BME280;9959;49.798;9.928;2023-05-03T06:46:27;100683.72;;;9.09;66.44
19624;BME280;9959;49.798;9.928;2023-05-03T06:48:54;100678.44;;;8.93;66.89
19624;BME280;9959;49.798;9.928;2023-05-03T06:51:24;100675.78;;;8.85;67.05
19624;BME280;9959;49.798;9.928;2023-05-03T06:53:56;100684.41;;;9.03;66.31
19624;BME280;9959;49.798;9.928;2023-05-03T06:56:23;100682.16;;;8.92;67.26
19624;BME280;9959;49.798;9.928;2023-05-03T06:58:50;100677.75;;;8.99;67.08
19624;BME280;9959;49.798;9.928;2023-05-03T07:01:16;100675.19;;;8.75;68.43
19624;BME280;9959;49.798;9.928;2023-05-03T07:03:45;100670.69;;;8.98;67.70
19624;BME280;9959;49.798;9.928;2023-05-03T07:06:12;100673.59;;;9.20;67.23
19624;BME280;9959;49.798;9.928;2023-05-03T07:08:39;100665.81;;;9.47;65.88
19624;BME280;9959;49.798;9.928;2023-05-03T07:11:05;100659.97;;;9.44;65.68
19624;BME280;9959;49.798;9.928;2023-05-03T07:13:32;100660.75;;;9.30;66.17
19624;BME280;9959;49.798;9.928;2023-05-03T07:15:59;100659.16;;;9.58;65.39
19624;BME280;9959;49.798;9.928;2023-05-03T07:18:29;100660.97;;;9.66;65.27
19624;BME280;9959;49.798;9.928;2023-05-03T07:20:55;100658.06;;;9.53;66.05
19624;BME280;9959;49.798;9.928;2023-05-03T07:23:22;100650.25;;;9.80;65.26
19624;BME280;9959;49.798;9.928;2023-05-03T07:25:49;100643.19;;;9.79;64.97
19624;BME280;9959;49.798;9.928;2023-05-03T07:28:17;100642.31;;;10.02;63.97
19624;BME280;9959;49.798;9.928;2023-05-03T07:30:44;100639.41;;;9.89;64.38
19624;BME280;9959;49.798;9.928;2023-05-03T07:33:10;100633.34;;;10.24;63.41
19624;BME280;9959;49.798;9.928;2023-05-03T07:35:38;100633.22;;;10.98;61.04
19624;BME280;9959;49.798;9.928;2023-05-03T07:38:04;100631.94;;;10.43;61.92
19624;BME280;9959;49.798;9.928;2023-05-03T07:40:31;100639.56;;;10.39;62.30
19624;BME280;9959;49.798;9.928;2023-05-03T07:42:59;100632.78;;;10.58;61.24
19624;BME280;9959;49.798;9.928;2023-05-03T07:45:26;100633.19;;;10.91;60.66
19624;BME280;9959;49.798;9.928;2023-05-03T07:47:54;100641.84;;;10.72;60.54
19624;BME280;9959;49.798;9.928;2023-05-03T07:50:21;100633.31;;;11.26;58.97
19624;BME280;9959;49.798;9.928;2023-05-03T07:52:48;100628.34;;;11.44;58.21
19624;BME280;9959;49.798;9.928;2023-05-03T07:55:18;100628.84;;;11.11;58.13
19624;BME280;9959;49.798;9.928;2023-05-03T07:57:45;100626.56;;;11.79;56.99
19624;BME280;9959;49.798;9.928;2023-05-03T08:00:13;100630.28;;;12.34;55.37
19624;BME280;9959;49.798;9.928;2023-05-03T08:02:40;100636.25;;;11.95;56.41
19624;BME280;9959;49.798;9.928;2023-05-03T08:05:09;100635.06;;;12.04;55.97
19624;BME280;9959;49.798;9.928;2023-05-03T08:07:36;100617.91;;;12.59;54.57
19624;BME280;9959;49.798;9.928;2023-05-03T08:10:04;100642.28;;;12.25;55.33
19624;BME280;9959;49.798;9.928;2023-05-03T08:12:31;100623.72;;;12.49;54.85
19624;BME280;9959;49.798;9.928;2023-05-03T08:14:58;100629.09;;;12.43;55.17
19624;BME280;9959;49.798;9.928;2023-05-03T08:17:25;100629.41;;;13.22;52.85
19624;BME280;9959;49.798;9.928;2023-05-03T08:19:54;100630.78;;;12.98;53.35
19624;BME280;9959;49.798;9.928;2023-05-03T08:22:21;100631.78;;;12.91;53.13
19624;BME280;9959;49.798;9.928;2023-05-03T08:24:51;100636.75;;;13.61;51.95
19624;BME280;9959;49.798;9.928;2023-05-03T08:27:18;100630.00;;;13.17;52.59
19624;BME280;9959;49.798;9.928;2023-05-03T08:29:45;100632.38;;;13.53;51.87
19624;BME280;9959;49.798;9.928;2023-05-03T08:32:12;100633.22;;;13.54;51.84
19624;BME280;9959;49.798;9.928;2023-05-03T08:34:39;100635.06;;;13.47;51.35
19624;BME280;9959;49.798;9.928;2023-05-03T08:37:07;100628.63;;;13.48;51.86
19624;BME280;9959;49.798;9.928;2023-05-03T08:39:34;100629.06;;;13.58;51.12
19624;BME280;9959;49.798;9.928;2023-05-03T08:42:05;100629.25;;;13.76;51.06
19624;BME280;9959;49.798;9.928;2023-05-03T08:44:36;100622.97;;;14.22;49.57
19624;BME280;9959;49.798;9.928;2023-05-03T08:47:03;100613.84;;;13.50;51.96
19624;BME280;9959;49.798;9.928;2023-05-03T08:49:32;100621.56;;;13.60;51.17
19624;BME280;9959;49.798;9.928;2023-05-03T08:52:01;100622.34;;;14.00;50.17
19624;BME280;9959;49.798;9.928;2023-05-03T08:54:28;100615.31;;;13.93;50.72
19624;BME280;9959;49.798;9.928;2023-05-03T08:56:55;100612.13;;;14.80;48.76
19624;BME280;9959;49.798;9.928;2023-05-03T08:59:22;100622.34;;;14.20;49.70
19624;BME280;9959;49.798;9.928;2023-05-03T09:01:50;100618.81;;;14.84;48.45
19624;BME280;9959;49.798;9.928;2023-05-03T09:04:28;100613.06;;;14.61;48.25
19624;BME280;9959;49.798;9.928;2023-05-03T09:07:06;100612.69;;;14.37;48.73
19624;BME280;9959;49.798;9.928;2023-05-03T09:09:33;100614.34;;;14.51;48.76
19624;BME280;9959;49.798;9.928;2023-05-03T09:12:00;100623.16;;;14.27;49.15
19624;BME280;9959;49.798;9.928;2023-05-03T09:14:27;100612.69;;;14.50;48.55
19624;BME280;9959;49.798;9.928;2023-05-03T09:16:53;100617.00;;;15.09;47.17
19624;BME280;9959;49.798;9.928;2023-05-03T09:19:20;100618.84;;;15.15;48.43
19624;BME280;9959;49.798;9.928;2023-05-03T09:21:47;100629.03;;;14.82;47.96
19624;BME280;9959;49.798;9.928;2023-05-03T09:24:18;100614.59;;;14.43;49.30
19624;BME280;9959;49.798;9.928;2023-05-03T09:26:47;100620.22;;;15.31;47.70
19624;BME280;9959;49.798;9.928;2023-05-03T09:29:28;100616.34;;;15.45;46.62
19624;BME280;9959;49.798;9.928;2023-05-03T09:32:02;100615.44;;;14.88;48.25
19624;BME280;9959;49.798;9.928;2023-05-03T09:34:34;100616.22;;;15.34;47.01
19624;BME280;9959;49.798;9.928;2023-05-03T09:37:01;100609.09;;;16.14;45.32
19624;BME280;9959;49.798;9.928;2023-05-03T09:39:28;100609.28;;;15.06;47.78
19624;BME280;9959;49.798;9.928;2023-05-03T09:41:55;100614.13;;;15.67;46.56
19624;BME280;9959;49.798;9.928;2023-05-03T09:44:48;100610.63;;;16.46;45.21
19624;BME280;9959;49.798;9.928;2023-05-03T09:47:19;100610.00;;;16.08;45.02
19624;BME280;9959;49.798;9.928;2023-05-03T09:49:51;100593.56;;;16.57;43.60
19624;BME280;9959;49.798;9.928;2023-05-03T09:52:18;100603.69;;;16.50;43.72
19624;BME280;9959;49.798;9.928;2023-05-03T09:54:45;100605.44;;;17.11;43.42
19624;BME280;9959;49.798;9.928;2023-05-03T09:57:12;100603.97;;;16.42;44.55
19624;BME280;9959;49.798;9.928;2023-05-03T09:59:40;100612.22;;;16.36;43.98
19624;BME280;9959;49.798;9.928;2023-05-03T10:02:07;100601.72;;;16.39;43.89
19624;BME280;9959;49.798;9.928;2023-05-03T10:04:48;100606.53;;;16.01;44.63
19624;BME280;9959;49.798;9.928;2023-05-03T10:07:17;100596.53;;;17.46;41.49
19624;BME280;9959;49.798;9.928;2023-05-03T10:09:46;100596.09;;;15.98;43.83
19624;BME280;9959;49.798;9.928;2023-05-03T10:12:14;100600.13;;;16.32;43.65
19624;BME280;9959;49.798;9.928;2023-05-03T10:14:45;100593.47;;;16.28;44.47
19624;BME280;9959;49.798;9.928;2023-05-03T10:17:19;100590.56;;;16.66;44.22
19624;BME280;9959;49.798;9.928;2023-05-03T10:23:09;100589.13;;;17.65;41.80
19624;BME280;9959;49.798;9.928;2023-05-03T10:25:38;100578.75;;;16.72;42.55
19624;BME280;9959;49.798;9.928;2023-05-03T10:28:07;100571.25;;;16.85;43.02
19624;BME280;9959;49.798;9.928;2023-05-03T10:30:38;100574.56;;;17.17;42.06
19624;BME280;9959;49.798;9.928;2023-05-03T10:35:50;100577.88;;;17.19;42.49
19624;BME280;9959;49.798;9.928;2023-05-03T10:38:25;100572.44;;;17.84;41.31
19624;BME280;9959;49.798;9.928;2023-05-03T10:40:53;100565.59;;;16.69;42.94
19624;BME280;9959;49.798;9.928;2023-05-03T10:46:02;100555.59;;;17.87;41.13
19624;BME280;9959;49.798;9.928;2023-05-03T10:48:32;100565.13;;;16.90;41.68
19624;BME280;9959;49.798;9.928;2023-05-03T10:53:56;100557.56;;;17.04;41.98
19624;BME280;9959;49.798;9.928;2023-05-03T10:56:23;100551.81;;;17.65;41.61
19624;BME280;9959;49.798;9.928;2023-05-03T10:58:50;100542.09;;;17.69;41.07
19624;BME280;9959;49.798;9.928;2023-05-03T11:01:22;100545.25;;;17.01;41.98
19624;BME280;9959;49.798;9.928;2023-05-03T11:06:39;100551.03;;;17.35;39.07
19624;BME280;9959;49.798;9.928;2023-05-03T11:09:11;100549.63;;;17.44;39.74
19624;BME280;9959;49.798;9.928;2023-05-03T11:11:40;100540.09;;;17.76;40.15
19624;BME280;9959;49.798;9.928;2023-05-03T11:14:08;100533.53;;;18.64;38.61
19624;BME280;9959;49.798;9.928;2023-05-03T11:16:36;100538.31;;;19.14;37.16
19624;BME280;9959;49.798;9.928;2023-05-03T11:19:06;100532.53;;;18.82;37.81
19624;BME280;9959;49.798;9.928;2023-05-03T11:21:33;100540.47;;;17.26;39.14
19624;BME280;9959;49.798;9.928;2023-05-03T11:24:00;100526.66;;;18.10;37.89
19624;BME280;9959;49.798;9.928;2023-05-03T11:26:27;100529.66;;;18.48;37.42
19624;BME280;9959;49.798;9.928;2023-05-03T11:28:54;100527.03;;;18.02;37.95
19624;BME280;9959;49.798;9.928;2023-05-03T11:31:21;100518.44;;;19.18;35.00
19624;BME280;9959;49.798;9.928;2023-05-03T11:33:48;100519.13;;;17.65;38.01
19624;BME280;9959;49.798;9.928;2023-05-03T11:36:16;100511.47;;;18.66;36.74
19624;BME280;9959;49.798;9.928;2023-05-03T11:38:43;100522.75;;;19.31;36.47
19624;BME280;9959;49.798;9.928;2023-05-03T11:41:15;100513.56;;;18.35;37.43
19624;BME280;9959;49.798;9.928;2023-05-03T11:43:48;100511.19;;;18.79;36.92
19624;BME280;9959;49.798;9.928;2023-05-03T11:46:32;100509.81;;;19.26;34.97
19624;BME280;9959;49.798;9.928;2023-05-03T11:49:00;100508.38;;;18.62;35.19
19624;BME280;9959;49.798;9.928;2023-05-03T11:51:29;100499.78;;;19.82;34.13
19624;BME280;9959;49.798;9.928;2023-05-03T11:53:59;100502.78;;;18.69;36.56
19624;BME280;9959;49.798;9.928;2023-05-03T11:56:47;100501.53;;;19.21;35.90
19624;BME280;9959;49.798;9.928;2023-05-03T11:59:16;100502.72;;;19.09;35.74
19624;BME280;9959;49.798;9.928;2023-05-03T12:01:44;100495.75;;;19.35;35.24
19624;BME280;9959;49.798;9.928;2023-05-03T12:04:15;100490.13;;;19.24;35.26
19624;BME280;9959;49.798;9.928;2023-05-03T12:06:42;100482.94;;;20.78;33.21
19624;BME280;9959;49.798;9.928;2023-05-03T12:09:19;100485.69;;;20.83;32.42
19624;BME280;9959;49.798;9.928;2023-05-03T12:11:49;100491.00;;;19.80;33.16
19624;BME280;9959;49.798;9.928;2023-05-03T12:14:17;100492.75;;;19.70;33.97
19624;BME280;9959;49.798;9.928;2023-05-03T12:16:50;100480.59;;;20.65;32.56
19624;BME280;9959;49.798;9.928;2023-05-03T12:19:27;100488.00;;;20.20;32.16
19624;BME280;9959;49.798;9.928;2023-05-03T12:21:58;100486.78;;;19.89;32.06
19624;BME280;9959;49.798;9.928;2023-05-03T12:24:45;100483.81;;;19.74;31.19
19624;BME280;9959;49.798;9.928;2023-05-03T12:27:14;100484.03;;;20.55;30.79
19624;BME280;9959;49.798;9.928;2023-05-03T12:29:44;100483.88;;;20.18;30.56
19624;BME280;9959;49.798;9.928;2023-05-03T12:32:27;100486.47;;;21.37;30.78
19624;BME280;9959;49.798;9.928;2023-05-03T12:34:54;100488.38;;;20.07;30.09
19624;BME280;9959;49.798;9.928;2023-05-03T12:37:22;100485.19;;;20.86;29.38
19624;BME280;9959;49.798;9.928;2023-05-03T12:39:52;100481.97;;;19.80;29.72
19624;BME280;9959;49.798;9.928;2023-05-03T12:42:39;100475.44;;;20.03;29.85
19624;BME280;9959;49.798;9.928;2023-05-03T12:45:10;100475.66;;;19.41;29.77
19624;BME280;9959;49.798;9.928;2023-05-03T12:47:39;100471.28;;;19.95;30.13
19624;BME280;9959;49.798;9.928;2023-05-03T12:50:10;100466.59;;;20.88;29.46
19624;BME280;9959;49.798;9.928;2023-05-03T12:52:38;100470.22;;;20.01;29.64
19624;BME280;9959;49.798;9.928;2023-05-03T12:55:07;100461.31;;;20.54;28.41
19624;BME280;9959;49.798;9.928;2023-05-03T12:57:36;100463.91;;;20.93;29.53
19624;BME280;9959;49.798;9.928;2023-05-03T13:00:05;100468.31;;;21.26;29.11
19624;BME280;9959;49.798;9.928;2023-05-03T13:02:40;100459.63;;;21.07;31.18
19624;BME280;9959;49.798;9.928;2023-05-03T13:05:27;100461.19;;;20.01;31.94
19624;BME280;9959;49.798;9.928;2023-05-03T13:08:02;100453.09;;;20.54;30.82
19624;BME280;9959;49.798;9.928;2023-05-03T13:10:36;100446.72;;;21.30;29.84
19624;BME280;9959;49.798;9.928;2023-05-03T13:13:04;100440.28;;;23.16;27.10
19624;BME280;9959;49.798;9.928;2023-05-03T13:15:33;100441.63;;;21.16;29.12
19624;BME280;9959;49.798;9.928;2023-05-03T13:18:01;100446.09;;;22.17;27.28
19624;BME280;9959;49.798;9.928;2023-05-03T13:20:30;100436.53;;;21.25;29.11
19624;BME280;9959;49.798;9.928;2023-05-03T13:22:58;100430.66;;;21.16;29.21
19624;BME280;9959;49.798;9.928;2023-05-03T13:25:25;100429.66;;;21.22;30.08
19624;BME280;9959;49.798;9.928;2023-05-03T13:27:52;100429.34;;;21.56;28.65
19624;BME280;9959;49.798;9.928;2023-05-03T13:30:20;100427.84;;;21.38;28.20
19624;BME280;9959;49.798;9.928;2023-05-03T13:32:48;100431.69;;;21.84;27.22